Time;durP1;ratioP1;P1;durP2;ratioP2;P2;SDS_P1;SDS_P2;PMS_P1;PMS_P2;Temp;Humidity;BMP_temperature;BMP_pressure;BME280_temperature;BME280_humidity;BME280_pressure;Samples;Min_cycle;Max_cycle;Signal;HPM_P1;HPM_P2
2023/12/24 00:00:37;;;;;;;178.00;97.15;;;6.30;99.90;;;;;;4998223;28;20288;-81
2023/12/24 00:03:05;;;;;;;168.32;93.38;;;6.40;1.00;;;;;;4998204;28;20062;-81
2023/12/24 00:05:35;;;;;;;170.32;94.70;;;6.40;99.90;;;;;;4997923;28;20060;-82
2023/12/24 00:08:02;;;;;;;160.82;89.05;;;6.40;1.00;;;;;;5017310;28;20084;-82
2023/12/24 00:10:29;;;;;;;156.57;91.32;;;6.40;1.00;;;;;;5011523;28;20058;-80
2023/12/24 00:12:56;;;;;;;166.13;94.88;;;6.50;99.90;;;;;;5011356;28;20053;-81
2023/12/24 00:15:24;;;;;;;166.00;95.00;;;6.60;99.90;;;;;;5012143;28;20706;-81
2023/12/24 00:17:54;;;;;;;166.80;94.15;;;6.40;65.90;;;;;;4990986;28;20504;-81
2023/12/24 00:20:21;;;;;;;182.77;104.28;;;6.60;1.00;;;;;;5006442;28;20042;-79
2023/12/24 00:23:04;;;;;;;187.25;107.57;;;6.50;1.00;;;;;;4982572;28;20049;-80
2023/12/24 00:25:31;;;;;;;205.63;116.15;;;6.40;99.90;;;;;;4982571;28;20502;-81
2023/12/24 00:27:59;;;;;;;191.23;108.60;;;6.40;99.90;;;;;;4982580;28;20046;-80
2023/12/24 00:30:27;;;;;;;172.63;96.95;;;6.40;1.00;;;;;;4983757;28;20049;-81
2023/12/24 00:33:00;;;;;;;170.05;98.28;;;6.50;1.00;;;;;;4982679;28;20042;-81
2023/12/24 00:35:28;;;;;;;156.02;94.53;;;6.60;99.90;;;;;;4999162;28;20042;-81
2023/12/24 00:37:58;;;;;;;164.90;97.95;;;6.60;99.90;;;;;;4988511;28;20112;-80
2023/12/24 00:40:26;;;;;;;174.95;104.68;;;6.60;99.90;;;;;;5005125;28;20503;-81
2023/12/24 00:42:53;;;;;;;188.88;109.93;;;6.50;55.40;;;;;;4996761;28;20458;-81
2023/12/24 00:45:21;;;;;;;180.90;107.88;;;6.60;1.00;;;;;;4991009;28;20148;-81
2023/12/24 00:47:49;;;;;;;198.73;113.95;;;6.60;1.00;;;;;;5002983;28;20074;-81
2023/12/24 00:50:18;;;;;;;193.85;120.78;;;6.50;1.00;;;;;;5000357;28;20057;-80
2023/12/24 00:52:48;;;;;;;185.80;118.22;;;6.20;3.90;;;;;;4983306;28;20038;-79
2023/12/24 00:55:15;;;;;;;186.75;118.75;;;6.20;99.90;;;;;;4989485;28;20138;-80
2023/12/24 00:57:43;;;;;;;175.70;115.03;;;6.40;99.90;;;;;;5016791;28;20042;-81
2023/12/24 01:00:11;;;;;;;183.70;115.45;;;6.50;1.00;;;;;;5004931;28;20066;-79
2023/12/24 01:02:39;;;;;;;184.32;117.78;;;6.50;1.00;;;;;;5005730;28;20064;-81
2023/12/24 01:05:08;;;;;;;187.05;118.60;;;6.50;99.90;;;;;;5005519;28;20034;-81
2023/12/24 01:07:37;;;;;;;186.20;118.53;;;6.60;1.00;;;;;;4992112;28;20104;-81
2023/12/24 01:10:05;;;;;;;185.82;118.80;;;6.60;1.00;;;;;;5010642;28;20133;-81
2023/12/24 01:12:33;;;;;;;195.38;121.60;;;6.60;1.00;;;;;;4987134;28;20050;-81
2023/12/24 01:15:00;;;;;;;185.98;113.18;;;6.60;1.00;;;;;;4989346;28;20433;-81
2023/12/24 01:17:28;;;;;;;189.48;114.22;;;6.60;1.00;;;;;;4986506;28;20133;-80
2023/12/24 01:19:58;;;;;;;181.95;108.40;;;6.60;1.00;;;;;;4988346;28;20072;-80
2023/12/24 01:22:25;;;;;;;195.13;109.75;;;6.60;1.00;;;;;;5000818;28;20046;-83
2023/12/24 01:24:54;;;;;;;183.93;103.35;;;6.60;1.00;;;;;;5004755;28;20046;-81
2023/12/24 01:27:21;;;;;;;187.52;108.20;;;6.70;99.90;;;;;;4988037;28;20725;-80
2023/12/24 01:29:52;;;;;;;194.82;110.63;;;6.70;1.00;;;;;;5010235;28;20488;-81
2023/12/24 01:32:20;;;;;;;187.98;109.88;;;6.70;1.00;;;;;;5008810;28;20096;-82
2023/12/24 01:34:47;;;;;;;184.18;106.90;;;6.70;1.00;;;;;;5022686;28;20034;-81
2023/12/24 01:37:15;;;;;;;175.55;102.50;;;6.70;1.00;;;;;;5001107;28;20046;-81
2023/12/24 01:39:44;;;;;;;193.52;107.55;;;6.80;99.90;;;;;;4988834;28;20076;-82
2023/12/24 01:42:13;;;;;;;183.45;108.57;;;6.80;69.70;;;;;;4988023;28;20078;-83
2023/12/24 01:44:40;;;;;;;180.75;105.15;;;6.70;1.00;;;;;;5004917;28;20034;-82
2023/12/24 01:47:08;;;;;;;189.77;110.10;;;6.60;1.00;;;;;;4985751;28;20462;-82
2023/12/24 01:49:36;;;;;;;193.05;111.75;;;6.70;1.00;;;;;;4986778;28;20101;-82
2023/12/24 01:52:04;;;;;;;197.48;110.00;;;6.70;1.00;;;;;;5006206;28;20065;-82
2023/12/24 01:54:34;;;;;;;185.45;109.38;;;6.60;99.90;;;;;;5012101;28;20070;-82
2023/12/24 01:57:01;;;;;;;179.63;106.75;;;6.70;1.00;;;;;;4990682;28;20060;-81
2023/12/24 01:59:33;;;;;;;156.18;94.22;;;6.70;99.90;;;;;;4990242;28;20062;-81
2023/12/24 02:02:02;;;;;;;168.27;98.28;;;6.50;1.00;;;;;;4986942;28;20100;-82
2023/12/24 02:04:30;;;;;;;178.02;100.43;;;6.60;1.00;;;;;;4988740;28;20100;-81
2023/12/24 02:06:58;;;;;;;176.02;101.50;;;6.60;1.00;;;;;;5006927;28;20066;-80
2023/12/24 02:09:25;;;;;;;179.45;103.10;;;6.70;1.00;;;;;;4988138;28;20434;-82
2023/12/24 02:11:53;;;;;;;173.27;103.25;;;6.80;99.90;;;;;;5003924;28;20048;-82
2023/12/24 02:14:20;;;;;;;168.77;99.03;;;6.90;12.30;;;;;;4985410;28;20104;-83
2023/12/24 02:16:50;;;;;;;160.35;94.80;;;6.90;99.90;;;;;;4994657;28;20039;-82
2023/12/24 02:19:19;;;;;;;167.38;97.43;;;6.90;1.00;;;;;;5035430;28;20030;-82
2023/12/24 02:21:48;;;;;;;166.93;94.82;;;6.90;1.00;;;;;;5002897;28;20068;-82
2023/12/24 02:24:16;;;;;;;168.60;99.70;;;6.90;1.00;;;;;;4990463;28;20050;-82
2023/12/24 02:26:52;;;;;;;159.15;97.70;;;6.80;99.90;;;;;;4985137;28;20046;-82
2023/12/24 02:29:26;;;;;;;150.05;91.65;;;6.80;1.00;;;;;;4986068;28;20054;-81
2023/12/24 02:31:59;;;;;;;146.95;91.43;;;6.80;95.20;;;;;;5010143;28;20053;-81
2023/12/24 02:34:28;;;;;;;152.10;96.53;;;6.80;99.90;;;;;;5016929;28;20045;-82
2023/12/24 02:36:58;;;;;;;161.38;102.20;;;6.90;99.90;;;;;;4995769;28;20042;-83
2023/12/24 02:39:25;;;;;;;162.02;104.25;;;6.90;1.00;;;;;;5003272;28;20597;-82
2023/12/24 02:41:53;;;;;;;159.25;105.25;;;6.80;1.00;;;;;;4995891;28;20042;-80
2023/12/24 02:44:21;;;;;;;132.35;86.47;;;6.70;12.10;;;;;;5015453;28;20046;-82
2023/12/24 02:46:48;;;;;;;137.63;87.30;;;6.40;99.90;;;;;;4986573;28;20046;-81
2023/12/24 02:49:16;;;;;;;108.25;67.63;;;6.30;99.90;;;;;;4985335;28;20509;-79
2023/12/24 02:51:43;;;;;;;111.35;69.18;;;6.40;99.90;;;;;;5009301;28;20050;-81
2023/12/24 02:54:12;;;;;;;131.38;82.20;;;6.50;1.00;;;;;;5009467;28;20073;-82
2023/12/24 02:56:40;;;;;;;136.65;84.63;;;6.60;1.00;;;;;;4982684;28;20049;-80
2023/12/24 02:59:07;;;;;;;145.95;87.47;;;6.70;74.90;;;;;;4981469;28;20058;-81
2023/12/24 03:01:36;;;;;;;147.25;86.80;;;6.80;1.00;;;;;;4980332;28;20042;-80
2023/12/24 03:04:04;;;;;;;157.15;89.40;;;6.80;99.90;;;;;;4981323;28;20061;-81
2023/12/24 03:06:32;;;;;;;140.07;82.03;;;6.80;92.60;;;;;;4980112;28;20100;-81
2023/12/24 03:09:00;;;;;;;143.77;84.35;;;6.90;1.00;;;;;;4982969;28;20042;-80
2023/12/24 03:11:29;;;;;;;147.73;82.35;;;6.80;1.00;;;;;;4979906;28;20050;-81
2023/12/24 03:13:56;;;;;;;122.13;71.10;;;6.80;31.30;;;;;;4980959;28;20088;-81
2023/12/24 03:16:24;;;;;;;120.57;73.20;;;6.90;1.00;;;;;;4979333;28;20514;-80
2023/12/24 03:18:51;;;;;;;132.48;77.13;;;6.90;1.00;;;;;;4981990;28;20066;-81
2023/12/24 03:21:19;;;;;;;130.07;77.45;;;6.90;1.00;;;;;;4978452;28;20047;-82
2023/12/24 03:23:46;;;;;;;131.05;76.47;;;6.90;99.90;;;;;;4995813;28;20023;-81
2023/12/24 03:26:20;;;;;;;134.48;76.13;;;6.80;1.00;;;;;;5002989;28;20039;-81
2023/12/24 03:28:51;;;;;;;124.47;73.55;;;6.70;99.90;;;;;;4997744;28;20047;-80
2023/12/24 03:31:18;;;;;;;140.75;77.15;;;6.70;99.90;;;;;;5006538;28;20058;-80
2023/12/24 03:33:46;;;;;;;125.95;74.90;;;6.70;99.90;;;;;;4982702;28;20043;-81
2023/12/24 03:36:13;;;;;;;126.90;73.43;;;6.70;1.00;;;;;;4980390;28;20090;-81
2023/12/24 03:38:42;;;;;;;133.50;76.03;;;6.80;1.00;;;;;;4981561;28;20518;-81
2023/12/24 03:41:09;;;;;;;130.00;74.13;;;6.90;1.00;;;;;;4983661;28;20038;-80
2023/12/24 03:43:37;;;;;;;139.40;80.63;;;6.90;1.00;;;;;;4981247;28;20039;-81
2023/12/24 03:46:06;;;;;;;140.20;79.82;;;7.00;1.00;;;;;;5004626;28;20039;-81
2023/12/24 03:48:37;;;;;;;130.98;74.22;;;7.00;1.00;;;;;;4979692;28;20042;-80
2023/12/24 03:51:05;;;;;;;107.90;66.13;;;7.10;1.00;;;;;;4981848;28;20047;-80
2023/12/24 03:53:32;;;;;;;108.53;66.18;;;7.00;1.00;;;;;;4979707;28;20503;-80
2023/12/24 03:56:00;;;;;;;126.25;73.03;;;7.00;1.00;;;;;;4976867;28;20043;-81
2023/12/24 03:58:27;;;;;;;112.43;66.70;;;7.00;99.90;;;;;;4977436;28;20139;-81
2023/12/24 04:00:55;;;;;;;108.82;64.32;;;6.90;1.00;;;;;;5014773;23;20057;-76
2023/12/24 04:03:24;;;;;;;104.50;63.88;;;6.90;1.00;;;;;;5011121;28;20045;-77
2023/12/24 04:05:52;;;;;;;111.05;64.55;;;6.80;1.00;;;;;;5018629;28;20048;-80
2023/12/24 04:08:20;;;;;;;112.63;65.25;;;6.80;99.90;;;;;;5025760;28;20046;-77
2023/12/24 04:10:47;;;;;;;104.18;59.83;;;6.80;1.00;;;;;;5024588;28;20057;-77
2023/12/24 04:13:16;;;;;;;101.72;59.85;;;6.80;1.00;;;;;;5017679;28;20077;-77
2023/12/24 04:15:43;;;;;;;107.38;63.70;;;6.90;65.00;;;;;;5011416;28;20049;-77
2023/12/24 04:18:11;;;;;;;110.20;65.50;;;6.90;1.00;;;;;;5013271;28;20502;-75
2023/12/24 04:20:40;;;;;;;112.85;67.82;;;7.00;1.00;;;;;;5009991;28;20045;-75
2023/12/24 04:23:08;;;;;;;111.15;68.25;;;7.10;1.00;;;;;;5009494;28;20096;-76
2023/12/24 04:25:35;;;;;;;138.68;82.07;;;7.00;1.00;;;;;;5010323;28;20112;-76
2023/12/24 04:28:06;;;;;;;123.78;79.10;;;7.00;1.00;;;;;;5010748;28;20920;-78
2023/12/24 04:30:34;;;;;;;108.78;72.10;;;6.60;1.00;;;;;;5010109;28;20099;-78
2023/12/24 04:33:05;;;;;;;71.93;47.25;;;6.40;99.90;;;;;;5026302;28;20052;-78
2023/12/24 04:35:32;;;;;;;102.85;67.57;;;6.50;1.00;;;;;;5011380;28;20498;-76
2023/12/24 04:38:02;;;;;;;98.28;65.63;;;6.60;1.00;;;;;;5011414;28;20038;-78
2023/12/24 04:40:30;;;;;;;105.22;66.93;;;6.70;99.90;;;;;;5010641;28;20068;-77
2023/12/24 04:42:58;;;;;;;94.70;61.53;;;6.70;99.90;;;;;;5011243;28;20089;-77
2023/12/24 04:45:27;;;;;;;98.20;62.40;;;6.80;99.90;;;;;;5011707;28;20045;-77
2023/12/24 04:47:58;;;;;;;100.38;63.80;;;6.80;99.90;;;;;;5013026;28;20057;-76
2023/12/24 04:50:26;;;;;;;93.38;59.15;;;6.80;1.00;;;;;;5005495;28;20073;-77
2023/12/24 04:52:55;;;;;;;97.45;58.95;;;6.90;48.50;;;;;;5010971;28;20045;-76
2023/12/24 04:55:24;;;;;;;91.82;55.50;;;6.90;1.00;;;;;;5012584;28;20052;-77
2023/12/24 04:57:52;;;;;;;93.68;56.22;;;7.00;1.00;;;;;;5011362;28;20117;-75
2023/12/24 05:00:20;;;;;;;93.90;54.42;;;7.00;99.90;;;;;;5011756;28;20062;-76
2023/12/24 05:02:49;;;;;;;85.60;50.75;;;7.10;1.00;;;;;;5010941;28;20486;-77
2023/12/24 05:05:17;;;;;;;93.15;53.67;;;7.00;99.90;;;;;;5028621;28;20054;-76
2023/12/24 05:07:45;;;;;;;86.68;52.75;;;6.90;3.20;;;;;;5010641;28;20490;-76
2023/12/24 05:10:13;;;;;;;92.97;55.17;;;6.90;99.90;;;;;;5011352;28;20050;-75
2023/12/24 05:12:42;;;;;;;90.15;54.92;;;7.00;95.80;;;;;;5012807;28;20096;-76
2023/12/24 05:15:11;;;;;;;82.65;49.05;;;7.00;1.00;;;;;;5012765;28;20045;-77
2023/12/24 05:17:39;;;;;;;75.53;47.15;;;7.00;1.00;;;;;;5012877;28;20564;-77
2023/12/24 05:20:08;;;;;;;78.43;47.92;;;7.00;1.00;;;;;;5014278;28;20046;-77
2023/12/24 05:22:35;;;;;;;53.65;33.80;;;6.90;1.00;;;;;;5030478;28;20117;-77
2023/12/24 05:25:03;;;;;;;55.58;31.48;;;6.90;99.90;;;;;;5026881;28;20105;-77
2023/12/24 05:27:31;;;;;;;70.65;40.45;;;6.90;1.00;;;;;;5033987;28;20034;-77
2023/12/24 05:30:00;;;;;;;83.50;50.47;;;6.90;1.00;;;;;;5032630;28;20059;-76
2023/12/24 05:32:27;;;;;;;87.60;49.78;;;6.80;99.90;;;;;;5032201;28;20050;-78
2023/12/24 05:34:55;;;;;;;79.07;48.05;;;6.70;1.00;;;;;;5034320;28;20117;-78
2023/12/24 05:37:23;;;;;;;76.05;45.25;;;6.70;1.00;;;;;;5034249;28;20053;-77
2023/12/24 05:39:50;;;;;;;79.35;49.28;;;6.70;1.00;;;;;;5013221;28;20050;-77
2023/12/24 05:42:18;;;;;;;87.53;51.38;;;6.60;1.00;;;;;;5010771;28;20050;-78
2023/12/24 05:44:46;;;;;;;84.70;52.38;;;6.50;99.90;;;;;;5012583;28;20084;-78
2023/12/24 05:47:15;;;;;;;74.85;47.45;;;6.50;99.90;;;;;;5011918;28;20049;-78
2023/12/24 05:49:43;;;;;;;82.70;48.50;;;6.40;99.90;;;;;;5018458;28;20053;-77
2023/12/24 05:52:11;;;;;;;81.80;46.90;;;6.30;99.90;;;;;;5017488;28;20055;-76
2023/12/24 05:54:38;;;;;;;79.72;47.67;;;6.20;1.00;;;;;;5014925;28;20108;-76
2023/12/24 05:57:06;;;;;;;75.93;46.47;;;6.20;1.00;;;;;;5018078;28;20406;-75
2023/12/24 05:59:34;;;;;;;70.60;44.40;;;6.20;1.00;;;;;;5020233;28;20054;-78
2023/12/24 06:02:02;;;;;;;68.22;46.22;;;6.20;1.00;;;;;;5026451;28;20050;-77
2023/12/24 06:04:31;;;;;;;122.22;71.80;;;6.20;1.00;;;;;;5022643;28;20042;-75
2023/12/24 06:07:00;;;;;;;81.63;51.92;;;6.20;1.00;;;;;;5016637;28;20498;-77
2023/12/24 06:09:27;;;;;;;82.25;54.58;;;6.20;1.00;;;;;;5014044;28;20042;-80
2023/12/24 06:11:55;;;;;;;92.20;61.85;;;6.20;1.00;;;;;;5020940;28;20109;-77
2023/12/24 06:14:23;;;;;;;92.10;63.92;;;6.10;1.00;;;;;;5035154;28;20052;-77
2023/12/24 06:16:50;;;;;;;99.13;64.65;;;6.10;1.00;;;;;;5033338;28;20064;-75
2023/12/24 06:19:18;;;;;;;84.93;57.88;;;6.20;1.00;;;;;;4999273;28;20113;-77
2023/12/24 06:21:47;;;;;;;80.80;56.47;;;6.10;99.90;;;;;;5015930;28;20061;-76
2023/12/24 06:24:19;;;;;;;83.93;58.03;;;6.00;1.00;;;;;;5013199;28;20525;-76
2023/12/24 06:26:47;;;;;;;80.85;55.67;;;5.80;1.00;;;;;;5013572;28;20046;-75
2023/12/24 06:29:14;;;;;;;87.25;55.63;;;5.80;1.00;;;;;;5013628;28;20446;-76
2023/12/24 06:31:42;;;;;;;89.30;60.42;;;5.80;1.00;;;;;;5028623;28;20414;-76
2023/12/24 06:34:11;;;;;;;77.30;54.47;;;5.80;1.00;;;;;;5012674;28;20425;-75
2023/12/24 06:36:38;;;;;;;83.85;55.58;;;5.80;1.00;;;;;;5013629;28;20485;-76
2023/12/24 06:39:07;;;;;;;82.50;55.75;;;5.90;1.00;;;;;;5013352;28;20073;-78
2023/12/24 06:41:35;;;;;;;95.45;61.08;;;5.80;1.00;;;;;;5012772;28;20068;-76
2023/12/24 06:44:03;;;;;;;93.25;59.92;;;5.80;1.00;;;;;;5013770;28;20276;-73
2023/12/24 06:46:30;;;;;;;92.47;60.10;;;5.80;1.00;;;;;;5015844;28;20558;-76
2023/12/24 06:48:58;;;;;;;89.82;62.35;;;5.80;1.00;;;;;;5013375;28;20073;-78
2023/12/24 06:51:26;;;;;;;105.90;68.10;;;5.80;1.00;;;;;;5011979;28;20488;-76
2023/12/24 06:53:53;;;;;;;93.40;62.58;;;5.80;1.00;;;;;;5013070;28;20042;-75
2023/12/24 06:56:22;;;;;;;103.30;65.32;;;5.70;1.00;;;;;;5012214;28;20042;-77
2023/12/24 06:58:50;;;;;;;109.13;64.78;;;5.80;91.40;;;;;;5012096;28;20041;-76
2023/12/24 07:01:18;;;;;;;103.47;61.50;;;5.90;37.60;;;;;;5017151;28;20148;-76
2023/12/24 07:03:45;;;;;;;113.30;66.72;;;6.00;1.00;;;;;;5017149;28;20115;-77
2023/12/24 07:06:13;;;;;;;102.85;67.18;;;6.00;1.00;;;;;;5013306;28;20100;-75
2023/12/24 07:08:41;;;;;;;108.60;67.10;;;6.00;99.90;;;;;;5030293;28;20061;-77
2023/12/24 07:11:09;;;;;;;140.00;75.18;;;6.00;1.00;;;;;;5016804;28;20045;-75
2023/12/24 07:13:38;;;;;;;116.90;74.80;;;6.10;99.90;;;;;;5015393;28;20493;-75
2023/12/24 07:16:08;;;;;;;140.50;84.47;;;6.20;99.90;;;;;;5013120;28;20050;-77
2023/12/24 07:18:35;;;;;;;152.38;92.90;;;6.30;1.00;;;;;;5014041;28;20058;-78
2023/12/24 07:21:03;;;;;;;156.65;92.82;;;6.30;1.00;;;;;;5015481;28;20056;-77
2023/12/24 07:23:31;;;;;;;149.02;88.90;;;6.20;99.90;;;;;;5040450;28;20042;-76
2023/12/24 07:25:59;;;;;;;143.55;89.85;;;6.20;1.00;;;;;;5027084;28;20033;-77
2023/12/24 07:28:26;;;;;;;138.48;87.43;;;6.30;99.90;;;;;;5031787;28;20149;-76
2023/12/24 07:30:55;;;;;;;114.50;72.47;;;6.30;99.90;;;;;;5027306;28;20056;-77
2023/12/24 07:33:23;;;;;;;136.25;84.50;;;6.40;1.00;;;;;;5018762;28;20117;-78
2023/12/24 07:35:51;;;;;;;147.00;90.75;;;6.30;1.00;;;;;;5019204;28;20069;-79
2023/12/24 07:38:18;;;;;;;158.55;97.55;;;6.40;99.90;;;;;;5015465;28;20042;-76
2023/12/24 07:40:46;;;;;;;144.07;93.40;;;6.50;1.00;;;;;;5010693;28;20077;-77
2023/12/24 07:43:14;;;;;;;161.10;99.88;;;6.60;1.00;;;;;;5011519;28;20053;-77
2023/12/24 07:45:42;;;;;;;164.88;109.00;;;6.70;1.00;;;;;;5020309;28;20514;-77
2023/12/24 07:48:11;;;;;;;169.07;105.43;;;6.70;1.00;;;;;;5019758;28;20046;-78
2023/12/24 07:50:39;;;;;;;177.52;106.03;;;6.80;1.00;;;;;;5032343;28;20644;-80
2023/12/24 07:53:07;;;;;;;184.82;116.50;;;6.80;1.00;;;;;;5015915;28;20037;-77
2023/12/24 07:55:35;;;;;;;182.65;117.22;;;6.90;1.00;;;;;;5019425;28;20041;-76
2023/12/24 07:58:03;;;;;;;171.00;107.47;;;6.90;1.00;;;;;;5017986;28;20069;-77
2023/12/24 08:00:30;;;;;;;167.93;107.28;;;6.90;1.00;;;;;;5011989;28;20050;-78
2023/12/24 08:02:59;;;;;;;172.52;109.15;;;7.00;1.00;;;;;;5013959;28;20060;-77
2023/12/24 08:05:33;;;;;;;186.82;115.40;;;7.00;1.00;;;;;;5017002;28;20076;-77
2023/12/24 08:08:00;;;;;;;180.18;113.97;;;7.10;1.00;;;;;;5023601;28;20050;-79
2023/12/24 08:10:28;;;;;;;169.85;105.93;;;7.20;74.10;;;;;;5028693;28;20836;-77
2023/12/24 08:12:56;;;;;;;164.25;103.95;;;7.20;99.90;;;;;;5011166;28;20053;-76
2023/12/24 08:15:26;;;;;;;162.93;99.05;;;7.30;99.90;;;;;;5012494;28;20061;-78
2023/12/24 08:17:54;;;;;;;162.30;98.10;;;7.40;1.00;;;;;;5013788;28;20050;-76
2023/12/24 08:20:22;;;;;;;150.15;92.95;;;7.60;99.90;;;;;;5015444;28;20053;-78
2023/12/24 08:22:53;;;;;;;133.30;80.13;;;7.70;1.00;;;;;;5029913;28;20045;-78
2023/12/24 08:25:21;;;;;;;134.35;82.82;;;7.70;99.90;;;;;;5029612;28;20052;-79
2023/12/24 08:27:52;;;;;;;139.25;87.82;;;7.90;1.00;;;;;;5027458;28;20088;-76
2023/12/24 08:30:28;;;;;;;151.02;95.03;;;8.00;1.00;;;;;;5024452;28;20050;-81
2023/12/24 08:33:07;;;;;;;149.55;89.72;;;8.10;1.00;;;;;;5023759;28;20050;-81
2023/12/24 08:35:35;;;;;;;131.95;83.78;;;8.30;1.00;;;;;;5025954;28;20052;-78
2023/12/24 08:38:05;;;;;;;126.38;82.30;;;8.30;81.00;;;;;;5027148;28;20052;-79
2023/12/24 08:40:35;;;;;;;122.43;84.30;;;8.40;99.90;;;;;;5017940;28;20054;-76
2023/12/24 08:43:04;;;;;;;172.68;111.13;;;8.50;99.90;;;;;;5028565;28;20081;-76
2023/12/24 08:45:32;;;;;;;156.13;99.40;;;8.50;1.00;;;;;;5011669;28;20499;-75
2023/12/24 08:47:59;;;;;;;146.93;92.57;;;8.70;99.90;;;;;;5012049;28;20488;-77
2023/12/24 08:50:27;;;;;;;127.57;78.82;;;8.90;1.00;;;;;;5017227;28;20176;-80
2023/12/24 08:52:54;;;;;;;129.15;78.05;;;9.10;99.90;;;;;;5025684;28;20089;-78
2023/12/24 08:55:23;;;;;;;123.45;80.80;;;9.20;1.00;;;;;;5016515;28;20038;-75
2023/12/24 08:57:51;;;;;;;125.82;81.15;;;9.40;1.00;;;;;;5010922;28;20725;-75
2023/12/24 09:00:21;;;;;;;125.43;81.28;;;9.50;1.00;;;;;;5013481;28;20054;-78
2023/12/24 09:02:49;;;;;;;120.28;79.35;;;9.60;1.00;;;;;;5014612;28;20058;-75
2023/12/24 09:05:18;;;;;;;120.03;79.22;;;9.80;99.90;;;;;;5012745;28;20490;-77
2023/12/24 09:07:46;;;;;;;117.57;76.35;;;9.90;57.00;;;;;;5012350;28;20092;-76
2023/12/24 09:10:14;;;;;;;107.43;72.10;;;10.20;1.00;;;;;;5017791;28;20042;-78
2023/12/24 09:12:43;;;;;;;99.82;64.90;;;10.40;1.00;;;;;;5025846;28;20052;-78
2023/12/24 09:15:19;;;;;;;88.70;57.72;;;10.70;1.00;;;;;;5025850;28;20034;-77
2023/12/24 09:17:48;;;;;;;89.88;58.25;;;10.90;99.90;;;;;;5023292;28;20060;-77
2023/12/24 09:20:16;;;;;;;87.35;59.35;;;11.00;99.90;;;;;;5022606;28;20077;-76
2023/12/24 09:22:46;;;;;;;78.32;53.92;;;11.20;99.90;;;;;;5021414;28;20153;-76
2023/12/24 09:25:14;;;;;;;87.20;59.15;;;11.30;99.90;;;;;;5027216;28;20073;-77
2023/12/24 09:27:43;;;;;;;80.60;55.45;;;11.50;99.90;;;;;;5016141;28;20113;-78
2023/12/24 09:30:16;;;;;;;89.43;62.60;;;11.80;99.90;;;;;;5016862;28;20148;-80
2023/12/24 09:33:22;;;;;;;106.90;69.03;;;11.90;95.60;;;;;;5031155;28;20108;-79
2023/12/24 09:35:49;;;;;;;114.53;76.75;;;12.00;99.10;;;;;;4996870;28;20046;-75
2023/12/24 09:38:17;;;;;;;118.68;81.10;;;12.10;86.30;;;;;;5014040;28;20054;-78
2023/12/24 09:40:46;;;;;;;105.85;69.72;;;12.20;73.30;;;;;;5022113;28;20042;-76
2023/12/24 09:43:16;;;;;;;71.43;48.47;;;12.30;56.70;;;;;;5037308;28;20057;-76
2023/12/24 09:45:45;;;;;;;103.28;69.97;;;12.60;1.00;;;;;;5030445;28;20137;-75
2023/12/24 09:48:34;;;;;;;115.25;79.82;;;12.80;1.00;;;;;;5022102;28;20061;-80
2023/12/24 09:54:18;;;;;;;85.78;56.28;;;13.30;1.00;;;;;;5049385;28;20054;-78
2023/12/24 09:56:49;;;;;;;86.40;59.65;;;13.60;1.00;;;;;;5030991;28;20042;-76
2023/12/24 09:59:24;;;;;;;91.82;58.83;;;13.80;1.00;;;;;;5017283;28;20794;-76
2023/12/24 10:04:50;;;;;;;72.75;47.25;;;14.20;1.00;;;;;;5005282;28;20042;-76
2023/12/24 10:07:49;;;;;;;158.20;96.80;;;14.40;1.00;;;;;;5032860;28;20049;-76
2023/12/24 10:10:46;;;;;;;68.55;42.50;;;14.30;1.00;;;;;;5015690;28;20049;-74
2023/12/24 10:20:27;;;;;;;49.58;27.67;;;14.30;1.00;;;;;;4995725;28;20042;-75
2023/12/24 10:23:09;;;;;;;44.92;29.08;;;14.70;1.00;;;;;;5017266;28;20054;-75
2023/12/24 10:33:46;;;;;;;39.67;24.25;;;15.20;1.00;;;;;;5007849;28;20101;-77
2023/12/24 10:36:29;;;;;;;38.83;23.13;;;15.50;1.00;;;;;;5013795;28;20046;-76
2023/12/24 10:42:19;;;;;;;38.17;22.45;;;15.50;1.00;;;;;;5017161;28;20050;-76
2023/12/24 11:03:03;;;;;;;51.33;34.63;;;16.80;1.00;;;;;;4975069;28;20066;-79
2023/12/24 11:21:32;;;;;;;51.05;31.85;;;17.40;1.00;;;;;;4866058;29;20060;-79
2023/12/24 11:24:31;;;;;;;42.63;29.35;;;17.40;1.00;;;;;;4868577;29;20144;-79
2023/12/24 11:26:59;;;;;;;44.22;28.90;;;17.40;1.00;;;;;;4847555;29;20061;-78
2023/12/24 11:29:47;;;;;;;48.10;28.23;;;17.30;1.00;;;;;;4858288;29;20057;-77
2023/12/24 11:32:36;;;;;;;33.28;22.27;;;17.30;1.00;;;;;;4845285;29;20546;-77
2023/12/24 11:35:05;;;;;;;37.50;23.75;;;17.20;1.00;;;;;;4845043;29;20074;-77
2023/12/24 11:37:36;;;;;;;43.35;27.73;;;17.10;1.00;;;;;;4832175;29;20051;-79
2023/12/24 11:40:05;;;;;;;38.50;24.80;;;16.90;1.00;;;;;;4852367;29;20136;-78
2023/12/24 11:42:49;;;;;;;40.22;27.17;;;16.80;1.00;;;;;;4851082;29;20327;-78
2023/12/24 11:45:24;;;;;;;42.55;26.83;;;16.60;1.00;;;;;;4851392;29;20694;-77
2023/12/24 11:47:53;;;;;;;45.00;27.73;;;16.50;1.00;;;;;;4850614;29;20081;-78
2023/12/24 11:50:22;;;;;;;42.60;26.65;;;16.40;1.00;;;;;;4861307;29;20049;-77
2023/12/24 11:52:52;;;;;;;35.13;21.55;;;16.40;1.00;;;;;;4861121;29;20048;-77
2023/12/24 11:55:21;;;;;;;32.60;18.70;;;16.40;1.00;;;;;;4878291;29;20075;-80
2023/12/24 11:57:50;;;;;;;37.85;22.58;;;16.40;1.00;;;;;;4899018;28;20039;-78
2023/12/24 12:00:25;;;;;;;28.13;17.45;;;16.40;1.00;;;;;;4980942;28;20049;-80
2023/12/24 12:02:58;;;;;;;30.15;18.33;;;16.30;1.00;;;;;;5017743;28;20099;-80
2023/12/24 12:05:26;;;;;;;33.88;19.45;;;16.30;1.00;;;;;;4991397;28;20046;-77
2023/12/24 12:07:56;;;;;;;35.78;21.63;;;16.20;1.00;;;;;;5017493;28;20041;-77
2023/12/24 12:10:24;;;;;;;30.13;19.23;;;16.30;1.00;;;;;;5041637;28;20040;-79
2023/12/24 12:12:52;;;;;;;32.50;18.75;;;16.30;1.00;;;;;;5038450;28;20057;-77
2023/12/24 12:15:20;;;;;;;35.58;22.30;;;16.30;1.00;;;;;;5043633;28;20066;-80
2023/12/24 12:17:49;;;;;;;35.50;22.13;;;16.30;1.00;;;;;;5046034;28;20041;-78
2023/12/24 12:20:17;;;;;;;28.70;17.38;;;16.40;1.00;;;;;;5020921;28;20049;-78
2023/12/24 12:22:45;;;;;;;32.92;18.65;;;16.40;1.00;;;;;;5037349;28;20049;-77
2023/12/24 12:25:14;;;;;;;29.40;18.42;;;16.30;1.00;;;;;;5044925;28;20068;-77
2023/12/24 12:27:41;;;;;;;32.60;18.17;;;16.30;1.00;;;;;;5019163;28;20071;-77
2023/12/24 12:30:10;;;;;;;29.40;17.15;;;16.30;1.00;;;;;;5038398;28;20049;-78
2023/12/24 12:32:37;;;;;;;30.15;17.75;;;16.30;1.00;;;;;;5039614;28;20076;-78
2023/12/24 12:35:06;;;;;;;32.03;17.83;;;16.30;1.00;;;;;;5024669;28;20055;-78
2023/12/24 12:37:34;;;;;;;34.67;19.27;;;16.30;1.00;;;;;;5020894;28;20037;-78
2023/12/24 12:40:03;;;;;;;29.92;19.25;;;16.30;1.00;;;;;;5048342;28;20037;-78
2023/12/24 12:42:33;;;;;;;27.83;18.48;;;16.30;1.00;;;;;;5052385;28;20045;-77
2023/12/24 12:45:01;;;;;;;38.10;22.42;;;16.30;1.00;;;;;;5045451;28;20149;-79
2023/12/24 12:47:29;;;;;;;35.30;20.42;;;16.30;1.00;;;;;;5016532;28;20045;-77
2023/12/24 12:49:58;;;;;;;37.35;21.73;;;16.30;1.00;;;;;;5015288;28;20048;-77
2023/12/24 12:52:26;;;;;;;33.83;22.00;;;16.30;1.00;;;;;;5014874;28;20060;-77
2023/12/24 12:55:02;;;;;;;42.58;24.45;;;16.40;1.00;;;;;;5014397;28;20042;-78
2023/12/24 12:57:29;;;;;;;40.30;21.85;;;16.40;1.00;;;;;;5040384;28;20099;-79
2023/12/24 13:00:10;;;;;;;35.13;23.08;;;16.50;1.00;;;;;;5014062;28;20084;-79
2023/12/24 13:02:38;;;;;;;40.97;24.75;;;16.50;1.00;;;;;;5032518;28;20050;-79
2023/12/24 13:05:23;;;;;;;39.30;25.80;;;16.60;1.00;;;;;;5006331;28;20056;-79
2023/12/24 13:07:52;;;;;;;38.53;24.38;;;16.70;1.00;;;;;;5022888;28;20048;-77
2023/12/24 13:10:30;;;;;;;37.60;22.50;;;16.70;1.00;;;;;;5029493;28;20042;-79
2023/12/24 13:13:12;;;;;;;39.13;23.35;;;16.70;1.00;;;;;;5014852;28;20050;-78
2023/12/24 13:15:43;;;;;;;37.05;22.98;;;16.60;1.00;;;;;;5012375;28;20452;-78
2023/12/24 13:18:18;;;;;;;39.75;25.35;;;16.50;1.00;;;;;;5014036;28;20050;-77
2023/12/24 13:21:07;;;;;;;39.20;24.50;;;16.40;1.00;;;;;;5015079;28;20049;-78
2023/12/24 13:23:38;;;;;;;40.75;24.00;;;16.40;1.00;;;;;;5024756;28;20042;-76
2023/12/24 13:26:06;;;;;;;40.45;25.00;;;16.30;1.00;;;;;;5014153;28;20111;-76
2023/12/24 13:28:44;;;;;;;54.55;33.60;;;16.30;1.00;;;;;;5012139;28;20053;-76
2023/12/24 13:31:13;;;;;;;40.05;26.88;;;16.10;1.00;;;;;;5029043;28;20037;-78
2023/12/24 13:33:41;;;;;;;89.78;57.08;;;16.00;1.00;;;;;;5033509;28;20030;-79
2023/12/24 13:36:11;;;;;;;43.85;27.13;;;16.00;1.00;;;;;;5022637;28;20061;-76
2023/12/24 13:38:39;;;;;;;63.15;38.83;;;15.90;1.00;;;;;;5032466;28;20091;-77
2023/12/24 13:41:10;;;;;;;53.22;32.28;;;15.90;1.00;;;;;;5040272;28;20040;-81
2023/12/24 13:43:43;;;;;;;51.50;31.23;;;15.80;1.00;;;;;;5021544;28;20076;-80